ADDS METAR Data INFO
IDs: Format: Raw Decoded Include TAF

Data at: 2009 UTC 19 Oct 2017

KSRR 191955Z AUTO 12004KT 10SM BKN065 15/08 A3020 RMK AO2 LTG DSNT S
KSRR 191935Z AUTO 00000KT 10SM BKN065 14/08 A3022 RMK AO2
KSRR 191915Z AUTO 11003KT 7SM -RA FEW037 BKN065 BKN070 14/09 A3022 RMK AO2 LTG DSNT SE-W
KSRR 191855Z AUTO 22007KT 10SM VCTS -RA BKN065 BKN085 OVC100 15/08 A3023 RMK AO2 LTG DSNT SE-W
KSRR 191835Z AUTO 28004KT 10SM BKN090 16/06 A3025 RMK AO2 LTG DSNT ALQDS
KSRR 191815Z AUTO 28005KT 9SM FEW080 FEW090 15/07 A3025 RMK AO2 LTG DSNT SE AND W
KSRR 191755Z AUTO 21011KT 10SM VCTS FEW070 FEW075 17/05 A3025 RMK AO2 LTG DSNT S-NW
KSRR 191735Z AUTO 15006KT 10SM SCT080 17/05 A3026 RMK AO2 LTG DSNT SE AND S
KSRR 191715Z AUTO 13006KT 10SM VCTS BKN080 18/05 A3026 RMK AO2 LTG DSNT S-W
KSRR 191655Z AUTO 09007KT 10SM FEW080 FEW110 18/05 A3025 RMK AO2 LTG DSNT S AND SW
KSRR 191635Z AUTO 14006KT 10SM BKN070 BKN110 17/05 A3026 RMK AO2
KSRR 191615Z AUTO 16007G14KT 10SM BKN070 BKN110 17/06 A3026 RMK AO2
KSRR 191555Z AUTO 00000KT 10SM BKN110 16/04 A3025 RMK AO2
KSRR 191535Z AUTO 32003KT 10SM BKN110 15/04 A3025 RMK AO2
KSRR 191515Z AUTO 26004KT 10SM FEW110 14/04 A3025 RMK AO2
KSRR 191455Z AUTO 26004KT 10SM CLR 14/05 A3025 RMK AO2
KSRR 191435Z AUTO 24003KT 10SM CLR 13/06 A3024 RMK AO2
KSRR 191415Z AUTO 28003KT 10SM CLR 12/05 A3024 RMK AO2
KSRR 191355Z AUTO 26004KT 10SM CLR 12/05 A3023 RMK AO2
KSRR 191335Z AUTO 25005KT 10SM CLR 12/05 A3023 RMK AO2
KSRR 191315Z AUTO 29004KT 10SM CLR 12/04 A3022 RMK AO2
KSRR 191255Z AUTO 29005KT 10SM CLR 12/04 A3022 RMK AO2
KSRR 191235Z AUTO 30004KT 10SM CLR 12/04 A3022 RMK AO2
KSRR 191215Z AUTO 30005KT 10SM CLR 11/04 A3022 RMK AO2
KSRR 191155Z AUTO 28006KT 10SM CLR 11/04 A3022 RMK AO2
KSRR 191135Z AUTO 29005KT 10SM VCTS CLR 12/04 A3023 RMK AO2 LTG DSNT W
KSRR 191115Z AUTO 27007KT 10SM CLR 12/04 A3022 RMK AO2
KSRR 191055Z AUTO 25007KT 10SM CLR 12/04 A3023 RMK AO2
KSRR 191035Z AUTO 24009KT 10SM CLR 12/03 A3022 RMK AO2
KSRR 191015Z AUTO 25006KT 10SM CLR 13/02 A3022 RMK AO2
KSRR 190955Z AUTO 26006KT 10SM CLR 12/02 A3022 RMK AO2
KSRR 190935Z AUTO 29005KT 10SM CLR 12/02 A3022 RMK AO2
KSRR 190915Z AUTO 10SM CLR 12/02 A3023 RMK AO2
KSRR 190855Z AUTO 10SM CLR 12/02 A3023 RMK AO2
KSRR 190835Z AUTO 10SM CLR 13/01 A3024 RMK AO2
KSRR 190815Z AUTO 20004KT 10SM CLR 12/00 A3024 RMK AO2
KSRR 190755Z AUTO 29004KT 10SM CLR 12/00 A3025 RMK AO2
KSRR 190735Z AUTO 24005KT 10SM CLR 13/M01 A3024 RMK AO2
KSRR 190715Z AUTO 00000KT 10SM CLR 12/M02 A3025 RMK AO2
KSRR 190655Z AUTO 00000KT 10SM CLR 12/M01 A3025 RMK AO2
KSRR 190555Z AUTO 23007KT 10SM CLR 13/M02 A3026 RMK AO2
KSRR 190535Z AUTO 24007KT 10SM CLR 13/M01 A3027 RMK AO2
KSRR 190515Z AUTO 26007KT 10SM CLR 12/M01 A3027 RMK AO2
KSRR 190455Z AUTO 24005KT 10SM CLR 12/M01 A3028 RMK AO2
KSRR 190435Z AUTO 23005KT 10SM CLR 12/00 A3028 RMK AO2
KSRR 190415Z AUTO 23007KT 10SM CLR 12/00 A3027 RMK AO2
KSRR 190315Z AUTO 25008KT 10SM CLR 14/00 A3026 RMK AO2
KSRR 190255Z AUTO 27008KT 10SM CLR 15/00 A3026 RMK AO2
KSRR 190235Z AUTO 26009KT 10SM CLR 14/00 A3026 RMK AO2
KSRR 190215Z AUTO 25008KT 10SM CLR 14/00 A3026 RMK AO2
KSRR 190155Z AUTO 25007KT 10SM CLR 15/01 A3027 RMK AO2
KSRR 190135Z AUTO 25006KT 10SM CLR 14/01 A3026 RMK AO2 LTG DSNT S
KSRR 190115Z AUTO 29005KT 10SM CLR 16/00 A3026 RMK AO2
KSRR 190055Z AUTO 31006KT 10SM CLR 17/00 A3026 RMK AO2
KSRR 190035Z AUTO 32005KT 10SM CLR 17/00 A3026 RMK AO2
KSRR 190015Z AUTO 32005KT 10SM CLR 18/00 A3025 RMK AO2
KSRR 182355Z AUTO 33005KT 10SM CLR 19/00 A3025 RMK AO2
KSRR 182335Z AUTO 33004KT 10SM CLR 19/00 A3025 RMK AO2
KSRR 182315Z AUTO 33004KT 10SM CLR 20/00 A3025 RMK AO2
KSRR 182255Z AUTO 29009G14KT 10SM CLR 21/00 A3025 RMK AO2
KSRR 182235Z AUTO 30008KT 10SM CLR 22/00 A3025 RMK AO2
KSRR 182215Z AUTO 32010KT 10SM CLR 22/00 A3025 RMK AO2
KSRR 182155Z AUTO 32011G15KT 10SM CLR 22/00 A3026 RMK AO2
KSRR 182135Z AUTO 31013KT 260V320 10SM CLR 22/01 A3026 RMK AO2
KSRR 182115Z AUTO 32007KT 10SM CLR 23/01 A3026 RMK AO2
KSRR 182055Z AUTO 31008G16KT 10SM CLR 22/00 A3026 RMK AO2
KSRR 182035Z AUTO 31010KT 10SM CLR 22/00 A3026 RMK AO2
KSRR 182015Z AUTO 32009KT 10SM CLR 22/00 A3027 RMK AO2
KSRR 181955Z AUTO 31010G14KT 10SM CLR 21/00 A3027 RMK AO2
KSRR 181935Z AUTO 33007KT 10SM VCTS CLR 22/00 A3028 RMK AO2 LTG DSNT W
KSRR 181915Z AUTO 35011G16KT 10SM CLR 21/00 A3029 RMK AO2
KSRR 181855Z AUTO 35008KT 10SM CLR 20/00 A3030 RMK AO2
KSRR 181835Z AUTO 35009KT 10SM CLR 20/01 A3031 RMK AO2
KSRR 181815Z AUTO 32008KT 10SM CLR 20/01 A3031 RMK AO2
KSRR 181755Z AUTO 31006KT 10SM CLR 20/00 A3032 RMK AO2
KSRR 181735Z AUTO 32011G15KT 10SM CLR 20/00 A3032 RMK AO2
KSRR 181715Z AUTO 32010G18KT 10SM CLR 20/M01 A3032 RMK AO2
KSRR 181655Z AUTO 32012G16KT 10SM CLR 20/00 A3031 RMK AO2
KSRR 181635Z AUTO 30010KT 10SM CLR 20/00 A3031 RMK AO2
KSRR 181615Z AUTO 32007KT 10SM CLR 20/01 A3032 RMK AO2
KSRR 181555Z AUTO 30003KT 10SM CLR 19/01 A3032 RMK AO2
KSRR 181535Z AUTO 30005KT 10SM CLR 19/02 A3032 RMK AO2
KSRR 181515Z AUTO 27004KT 10SM CLR 18/03 A3032 RMK AO2
KSRR 181455Z AUTO 26005KT 10SM CLR 17/03 A3032 RMK AO2
KSRR 181435Z AUTO 27005KT 10SM CLR 16/03 A3031 RMK AO2
KSRR 181415Z AUTO 24006KT 10SM CLR 14/04 A3030 RMK AO2
KSRR 181355Z AUTO 26007KT 10SM CLR 13/03 A3030 RMK AO2
KSRR 181335Z AUTO 24007KT 10SM CLR 10/02 A3029 RMK AO2
KSRR 181315Z AUTO 26004KT 10SM CLR 11/02 A3029 RMK AO2
KSRR 181255Z AUTO 23004KT 10SM CLR 09/02 A3028 RMK AO2
KSRR 181235Z AUTO 00000KT 10SM CLR 12/02 A3029 RMK AO2
KSRR 181215Z AUTO 25003KT 10SM CLR 11/02 A3028 RMK AO2
KSRR 181155Z AUTO 27007KT 10SM CLR 12/02 A3028 RMK AO2
KSRR 181135Z AUTO 30003KT 10SM VCTS CLR 11/02 A3028 RMK AO2 LTG DSNT W
KSRR 181115Z AUTO 30005KT 10SM CLR 10/02 A3027 RMK AO2
KSRR 181055Z AUTO 25006KT 10SM CLR 12/02 A3027 RMK AO2
KSRR 181035Z AUTO 25007KT 10SM CLR 10/02 A3027 RMK AO2
KSRR 181015Z AUTO 23007KT 10SM CLR 11/02 A3027 RMK AO2
KSRR 180955Z AUTO 24003KT 10SM CLR 12/01 A3027 RMK AO2
KSRR 180935Z AUTO 23003KT 10SM CLR 12/00 A3027 RMK AO2
KSRR 180915Z AUTO 00000KT 10SM CLR 10/M01 A3028 RMK AO2
KSRR 180855Z AUTO 00000KT 10SM CLR 10/M02 A3029 RMK AO2
KSRR 180835Z AUTO 00000KT 10SM CLR 11/M02 A3029 RMK AO2
KSRR 180815Z AUTO 06003KT 10SM CLR 11/M01 A3030 RMK AO2